sensor_id;sensor_type;location;lat;lon;timestamp;pressure;altitude;pressure_sealevel;temperature
68952;BMP180;56000;51.146;17.112;2023-05-10T00:00:34;100337.40;;;9.80
68952;BMP180;56000;51.146;17.112;2023-05-10T00:03:11;100328.40;;;9.72
68952;BMP180;56000;51.146;17.112;2023-05-10T00:05:40;100329.00;;;9.70
68952;BMP180;56000;51.146;17.112;2023-05-10T00:08:09;100323.60;;;9.70
68952;BMP180;56000;51.146;17.112;2023-05-10T00:10:38;100323.00;;;9.60
68952;BMP180;56000;51.146;17.112;2023-05-10T00:13:09;100318.80;;;9.60
68952;BMP180;56000;51.146;17.112;2023-05-10T00:15:38;100316.80;;;9.60
68952;BMP180;56000;51.146;17.112;2023-05-10T00:18:07;100316.00;;;9.50
68952;BMP180;56000;51.146;17.112;2023-05-10T00:20:36;100319.00;;;9.50
68952;BMP180;56000;51.146;17.112;2023-05-10T00:23:04;100319.40;;;9.46
68952;BMP180;56000;51.146;17.112;2023-05-10T00:25:33;100320.60;;;9.40
68952;BMP180;56000;51.146;17.112;2023-05-10T00:28:02;100319.80;;;9.40
68952;BMP180;56000;51.146;17.112;2023-05-10T00:30:31;100316.60;;;9.30
68952;BMP180;56000;51.146;17.112;2023-05-10T00:33:00;100310.00;;;9.30
68952;BMP180;56000;51.146;17.112;2023-05-10T00:35:28;100313.40;;;9.24
68952;BMP180;56000;51.146;17.112;2023-05-10T00:37:57;100316.00;;;9.20
68952;BMP180;56000;51.146;17.112;2023-05-10T00:40:26;100314.00;;;9.20
68952;BMP180;56000;51.146;17.112;2023-05-10T00:42:58;100313.60;;;9.10
68952;BMP180;56000;51.146;17.112;2023-05-10T00:45:27;100312.20;;;9.10
68952;BMP180;56000;51.146;17.112;2023-05-10T00:47:56;100309.20;;;9.02
68952;BMP180;56000;51.146;17.112;2023-05-10T00:50:25;100306.40;;;9.00
68952;BMP180;56000;51.146;17.112;2023-05-10T00:52:53;100310.80;;;9.00
68952;BMP180;56000;51.146;17.112;2023-05-10T00:55:23;100308.80;;;8.98
68952;BMP180;56000;51.146;17.112;2023-05-10T00:57:52;100301.20;;;8.90
68952;BMP180;56000;51.146;17.112;2023-05-10T01:00:21;100301.60;;;8.90
68952;BMP180;56000;51.146;17.112;2023-05-10T01:02:49;100300.20;;;8.84
68952;BMP180;56000;51.146;17.112;2023-05-10T01:05:19;100300.60;;;8.80
68952;BMP180;56000;51.146;17.112;2023-05-10T01:07:48;100296.00;;;8.80
68952;BMP180;56000;51.146;17.112;2023-05-10T01:10:16;100297.40;;;8.70
68952;BMP180;56000;51.146;17.112;2023-05-10T01:12:46;100295.60;;;8.70
68952;BMP180;56000;51.146;17.112;2023-05-10T01:15:16;100296.80;;;8.70
68952;BMP180;56000;51.146;17.112;2023-05-10T01:17:46;100295.80;;;8.60
68952;BMP180;56000;51.146;17.112;2023-05-10T01:20:16;100289.80;;;8.60
68952;BMP180;56000;51.146;17.112;2023-05-10T01:22:58;100292.80;;;8.60
68952;BMP180;56000;51.146;17.112;2023-05-10T01:25:46;100290.20;;;8.50
68952;BMP180;56000;51.146;17.112;2023-05-10T01:28:32;100288.40;;;8.50
68952;BMP180;56000;51.146;17.112;2023-05-10T01:33:57;100291.20;;;8.50
68952;BMP180;56000;51.146;17.112;2023-05-10T01:36:30;100290.00;;;8.50
68952;BMP180;56000;51.146;17.112;2023-05-10T01:39:03;100289.00;;;8.40
68952;BMP180;56000;51.146;17.112;2023-05-10T01:44:34;100293.40;;;8.40
68952;BMP180;56000;51.146;17.112;2023-05-10T01:47:05;100291.40;;;8.38
68952;BMP180;56000;51.146;17.112;2023-05-10T01:49:37;100290.20;;;8.30
68952;BMP180;56000;51.146;17.112;2023-05-10T01:52:10;100286.60;;;8.30
68952;BMP180;56000;51.146;17.112;2023-05-10T01:54:40;100288.20;;;8.30
68952;BMP180;56000;51.146;17.112;2023-05-10T01:57:11;100286.20;;;8.24
68952;BMP180;56000;51.146;17.112;2023-05-10T01:59:43;100282.60;;;8.20
68952;BMP180;56000;51.146;17.112;2023-05-10T02:02:11;100279.60;;;8.20
68952;BMP180;56000;51.146;17.112;2023-05-10T02:04:40;100282.60;;;8.20
68952;BMP180;56000;51.146;17.112;2023-05-10T02:07:10;100285.80;;;8.20
68952;BMP180;56000;51.146;17.112;2023-05-10T02:09:40;100281.40;;;8.20
68952;BMP180;56000;51.146;17.112;2023-05-10T02:12:09;100279.20;;;8.14
68952;BMP180;56000;51.146;17.112;2023-05-10T02:14:38;100281.20;;;8.10
68952;BMP180;56000;51.146;17.112;2023-05-10T02:17:07;100275.60;;;8.10
68952;BMP180;56000;51.146;17.112;2023-05-10T02:19:38;100274.60;;;8.10
68952;BMP180;56000;51.146;17.112;2023-05-10T02:22:08;100272.40;;;8.10
68952;BMP180;56000;51.146;17.112;2023-05-10T02:24:37;100270.80;;;8.10
68952;BMP180;56000;51.146;17.112;2023-05-10T02:27:06;100268.00;;;8.10
68952;BMP180;56000;51.146;17.112;2023-05-10T02:29:36;100268.40;;;8.06
68952;BMP180;56000;51.146;17.112;2023-05-10T02:32:05;100269.60;;;8.00
68952;BMP180;56000;51.146;17.112;2023-05-10T02:34:34;100272.00;;;8.00
68952;BMP180;56000;51.146;17.112;2023-05-10T02:37:03;100267.80;;;8.00
68952;BMP180;56000;51.146;17.112;2023-05-10T02:39:33;100271.40;;;8.00
68952;BMP180;56000;51.146;17.112;2023-05-10T02:42:02;100268.00;;;8.00
68952;BMP180;56000;51.146;17.112;2023-05-10T02:44:31;100269.80;;;8.00
68952;BMP180;56000;51.146;17.112;2023-05-10T02:47:01;100270.40;;;8.00
68952;BMP180;56000;51.146;17.112;2023-05-10T02:49:30;100273.20;;;8.00
68952;BMP180;56000;51.146;17.112;2023-05-10T02:52:01;100266.00;;;8.00
68952;BMP180;56000;51.146;17.112;2023-05-10T02:54:35;100266.80;;;7.90
68952;BMP180;56000;51.146;17.112;2023-05-10T02:57:07;100267.20;;;7.90
68952;BMP180;56000;51.146;17.112;2023-05-10T02:59:38;100262.40;;;7.90
68952;BMP180;56000;51.146;17.112;2023-05-10T03:02:07;100266.80;;;7.90
68952;BMP180;56000;51.146;17.112;2023-05-10T03:04:36;100263.40;;;7.90
68952;BMP180;56000;51.146;17.112;2023-05-10T03:07:05;100266.20;;;7.90
68952;BMP180;56000;51.146;17.112;2023-05-10T03:09:34;100267.00;;;7.90
68952;BMP180;56000;51.146;17.112;2023-05-10T03:12:06;100269.80;;;7.90
68952;BMP180;56000;51.146;17.112;2023-05-10T03:14:42;100269.40;;;7.90
68952;BMP180;56000;51.146;17.112;2023-05-10T03:17:19;100267.60;;;7.96
68952;BMP180;56000;51.146;17.112;2023-05-10T03:19:54;100266.20;;;8.00
68952;BMP180;56000;51.146;17.112;2023-05-10T03:22:26;100267.00;;;8.00
68952;BMP180;56000;51.146;17.112;2023-05-10T03:24:56;100266.20;;;8.00
68952;BMP180;56000;51.146;17.112;2023-05-10T03:27:27;100264.40;;;8.00
68952;BMP180;56000;51.146;17.112;2023-05-10T03:29:56;100264.60;;;8.06
68952;BMP180;56000;51.146;17.112;2023-05-10T03:32:25;100260.20;;;8.10
68952;BMP180;56000;51.146;17.112;2023-05-10T03:34:55;100262.60;;;8.10
68952;BMP180;56000;51.146;17.112;2023-05-10T03:37:25;100267.40;;;8.10
68952;BMP180;56000;51.146;17.112;2023-05-10T03:39:53;100261.60;;;8.16
68952;BMP180;56000;51.146;17.112;2023-05-10T03:42:22;100258.80;;;8.20
68952;BMP180;56000;51.146;17.112;2023-05-10T03:44:51;100260.40;;;8.20
68952;BMP180;56000;51.146;17.112;2023-05-10T03:47:20;100259.00;;;8.20
68952;BMP180;56000;51.146;17.112;2023-05-10T03:49:49;100259.00;;;8.24
68952;BMP180;56000;51.146;17.112;2023-05-10T03:52:18;100262.60;;;8.30
68952;BMP180;56000;51.146;17.112;2023-05-10T03:54:49;100259.40;;;8.30
68952;BMP180;56000;51.146;17.112;2023-05-10T03:57:18;100254.40;;;8.30
68952;BMP180;56000;51.146;17.112;2023-05-10T03:59:47;100259.20;;;8.40
68952;BMP180;56000;51.146;17.112;2023-05-10T04:02:16;100253.80;;;8.40
68952;BMP180;56000;51.146;17.112;2023-05-10T04:04:44;100251.60;;;8.40
68952;BMP180;56000;51.146;17.112;2023-05-10T04:07:13;100252.60;;;8.50
68952;BMP180;56000;51.146;17.112;2023-05-10T04:09:42;100252.00;;;8.50
68952;BMP180;56000;51.146;17.112;2023-05-10T04:12:10;100253.20;;;8.60
68952;BMP180;56000;51.146;17.112;2023-05-10T04:14:39;100257.20;;;8.60
68952;BMP180;56000;51.146;17.112;2023-05-10T04:17:08;100260.80;;;8.70
68952;BMP180;56000;51.146;17.112;2023-05-10T04:19:37;100258.20;;;8.74
68952;BMP180;56000;51.146;17.112;2023-05-10T04:22:05;100257.80;;;8.80
68952;BMP180;56000;51.146;17.112;2023-05-10T04:24:34;100256.20;;;8.90
68952;BMP180;56000;51.146;17.112;2023-05-10T04:27:03;100260.60;;;9.00
68952;BMP180;56000;51.146;17.112;2023-05-10T04:29:31;100254.40;;;9.10
68952;BMP180;56000;51.146;17.112;2023-05-10T04:32:00;100251.60;;;9.12
68952;BMP180;56000;51.146;17.112;2023-05-10T04:34:29;100257.00;;;9.20
68952;BMP180;56000;51.146;17.112;2023-05-10T04:36:57;100255.20;;;9.40
68952;BMP180;56000;51.146;17.112;2023-05-10T04:39:26;100251.20;;;9.50
68952;BMP180;56000;51.146;17.112;2023-05-10T04:41:55;100248.00;;;9.70
68952;BMP180;56000;51.146;17.112;2023-05-10T04:44:24;100250.40;;;9.80
68952;BMP180;56000;51.146;17.112;2023-05-10T04:46:52;100248.40;;;9.90
68952;BMP180;56000;51.146;17.112;2023-05-10T04:49:21;100246.60;;;10.00
68952;BMP180;56000;51.146;17.112;2023-05-10T04:51:50;100251.80;;;10.04
68952;BMP180;56000;51.146;17.112;2023-05-10T04:54:18;100250.00;;;10.14
68952;BMP180;56000;51.146;17.112;2023-05-10T04:56:47;100249.40;;;10.30
68952;BMP180;56000;51.146;17.112;2023-05-10T04:59:16;100256.80;;;10.40
68952;BMP180;56000;51.146;17.112;2023-05-10T05:01:45;100252.20;;;10.50
68952;BMP180;56000;51.146;17.112;2023-05-10T05:04:13;100247.40;;;10.60
68952;BMP180;56000;51.146;17.112;2023-05-10T05:06:42;100252.20;;;10.70
68952;BMP180;56000;51.146;17.112;2023-05-10T05:09:11;100247.20;;;10.90
68952;BMP180;56000;51.146;17.112;2023-05-10T05:11:40;100247.80;;;11.00
68952;BMP180;56000;51.146;17.112;2023-05-10T05:14:08;100251.00;;;11.20
68952;BMP180;56000;51.146;17.112;2023-05-10T05:16:37;100250.60;;;11.26
68952;BMP180;56000;51.146;17.112;2023-05-10T05:19:05;100246.20;;;11.40
68952;BMP180;56000;51.146;17.112;2023-05-10T05:21:34;100243.80;;;11.50
68952;BMP180;56000;51.146;17.112;2023-05-10T05:24:04;100244.40;;;11.60
68952;BMP180;56000;51.146;17.112;2023-05-10T05:26:33;100245.40;;;11.72
68952;BMP180;56000;51.146;17.112;2023-05-10T05:29:02;100244.40;;;11.90
68952;BMP180;56000;51.146;17.112;2023-05-10T05:31:31;100236.60;;;12.00
68952;BMP180;56000;51.146;17.112;2023-05-10T05:33:59;100238.20;;;12.16
68952;BMP180;56000;51.146;17.112;2023-05-10T05:36:28;100239.80;;;12.28
68952;BMP180;56000;51.146;17.112;2023-05-10T05:38:57;100234.80;;;12.40
68952;BMP180;56000;51.146;17.112;2023-05-10T05:41:25;100239.20;;;12.58
68952;BMP180;56000;51.146;17.112;2023-05-10T05:43:54;100234.60;;;12.70
68952;BMP180;56000;51.146;17.112;2023-05-10T05:46:22;100239.40;;;12.80
68952;BMP180;56000;51.146;17.112;2023-05-10T05:48:51;100240.20;;;12.92
68952;BMP180;56000;51.146;17.112;2023-05-10T05:51:20;100241.00;;;13.04
68952;BMP180;56000;51.146;17.112;2023-05-10T05:53:49;100237.20;;;13.12
68952;BMP180;56000;51.146;17.112;2023-05-10T05:56:17;100238.20;;;13.20
68952;BMP180;56000;51.146;17.112;2023-05-10T05:58:51;100240.20;;;13.30
68952;BMP180;56000;51.146;17.112;2023-05-10T06:01:21;100238.20;;;13.32
68952;BMP180;56000;51.146;17.112;2023-05-10T06:03:49;100240.80;;;13.42
68952;BMP180;56000;51.146;17.112;2023-05-10T06:06:20;100234.80;;;13.50
68952;BMP180;56000;51.146;17.112;2023-05-10T06:08:49;100237.80;;;13.60
68952;BMP180;56000;51.146;17.112;2023-05-10T06:11:18;100240.80;;;13.60
68952;BMP180;56000;51.146;17.112;2023-05-10T06:13:46;100245.20;;;13.70
68952;BMP180;56000;51.146;17.112;2023-05-10T06:16:15;100238.80;;;13.80
68952;BMP180;56000;51.146;17.112;2023-05-10T06:18:44;100245.40;;;13.90
68952;BMP180;56000;51.146;17.112;2023-05-10T06:21:13;100248.60;;;13.90
68952;BMP180;56000;51.146;17.112;2023-05-10T06:23:42;100244.60;;;14.00
68952;BMP180;56000;51.146;17.112;2023-05-10T06:26:11;100250.20;;;14.10
68952;BMP180;56000;51.146;17.112;2023-05-10T06:28:41;100252.60;;;14.20
68952;BMP180;56000;51.146;17.112;2023-05-10T06:31:10;100249.40;;;14.20
68952;BMP180;56000;51.146;17.112;2023-05-10T06:33:41;100250.40;;;14.30
68952;BMP180;56000;51.146;17.112;2023-05-10T06:36:10;100241.60;;;14.40
68952;BMP180;56000;51.146;17.112;2023-05-10T06:38:38;100243.80;;;14.50
68952;BMP180;56000;51.146;17.112;2023-05-10T06:41:07;100238.40;;;14.60
68952;BMP180;56000;51.146;17.112;2023-05-10T06:43:36;100236.40;;;14.70
68952;BMP180;56000;51.146;17.112;2023-05-10T06:46:07;100238.60;;;14.80
68952;BMP180;56000;51.146;17.112;2023-05-10T06:48:36;100233.20;;;14.80
68952;BMP180;56000;51.146;17.112;2023-05-10T06:51:05;100236.60;;;14.98
68952;BMP180;56000;51.146;17.112;2023-05-10T06:53:33;100233.60;;;15.10
68952;BMP180;56000;51.146;17.112;2023-05-10T06:56:02;100235.00;;;15.30
68952;BMP180;56000;51.146;17.112;2023-05-10T06:58:31;100237.00;;;15.36
68952;BMP180;56000;51.146;17.112;2023-05-10T07:01:04;100235.00;;;15.50
68952;BMP180;56000;51.146;17.112;2023-05-10T07:03:34;100236.80;;;15.50
68952;BMP180;56000;51.146;17.112;2023-05-10T07:06:03;100233.00;;;15.60
68952;BMP180;56000;51.146;17.112;2023-05-10T07:08:32;100225.20;;;15.70
68952;BMP180;56000;51.146;17.112;2023-05-10T07:11:02;100230.60;;;15.84
68952;BMP180;56000;51.146;17.112;2023-05-10T07:13:31;100233.80;;;15.90
68952;BMP180;56000;51.146;17.112;2023-05-10T07:16:00;100226.40;;;16.00
68952;BMP180;56000;51.146;17.112;2023-05-10T07:18:29;100221.00;;;16.10
68952;BMP180;56000;51.146;17.112;2023-05-10T07:20:58;100229.00;;;16.22
68952;BMP180;56000;51.146;17.112;2023-05-10T07:23:27;100228.00;;;16.30
68952;BMP180;56000;51.146;17.112;2023-05-10T07:25:56;100220.00;;;16.40
68952;BMP180;56000;51.146;17.112;2023-05-10T07:28:25;100217.60;;;16.44
68952;BMP180;56000;51.146;17.112;2023-05-10T07:30:54;100218.60;;;16.60
68952;BMP180;56000;51.146;17.112;2023-05-10T07:33:22;100212.40;;;16.70
68952;BMP180;56000;51.146;17.112;2023-05-10T07:35:51;100212.80;;;16.80
68952;BMP180;56000;51.146;17.112;2023-05-10T07:38:20;100210.60;;;16.80
68952;BMP180;56000;51.146;17.112;2023-05-10T07:40:48;100206.40;;;17.00
68952;BMP180;56000;51.146;17.112;2023-05-10T07:43:17;100203.40;;;17.10
68952;BMP180;56000;51.146;17.112;2023-05-10T07:45:45;100200.60;;;17.10
68952;BMP180;56000;51.146;17.112;2023-05-10T07:48:14;100200.00;;;17.20
68952;BMP180;56000;51.146;17.112;2023-05-10T07:50:43;100197.20;;;17.28
68952;BMP180;56000;51.146;17.112;2023-05-10T07:53:12;100198.00;;;17.40
68952;BMP180;56000;51.146;17.112;2023-05-10T07:55:40;100196.20;;;17.40
68952;BMP180;56000;51.146;17.112;2023-05-10T07:58:09;100196.00;;;17.60
68952;BMP180;56000;51.146;17.112;2023-05-10T08:00:38;100203.00;;;17.70
68952;BMP180;56000;51.146;17.112;2023-05-10T08:03:08;100199.40;;;17.80
68952;BMP180;56000;51.146;17.112;2023-05-10T08:05:37;100197.60;;;17.88
68952;BMP180;56000;51.146;17.112;2023-05-10T08:08:05;100191.60;;;17.90
68952;BMP180;56000;51.146;17.112;2023-05-10T08:10:34;100199.80;;;18.00
68952;BMP180;56000;51.146;17.112;2023-05-10T08:13:03;100196.20;;;18.10
68952;BMP180;56000;51.146;17.112;2023-05-10T08:15:32;100194.60;;;18.10
68952;BMP180;56000;51.146;17.112;2023-05-10T08:18:00;100195.40;;;18.24
68952;BMP180;56000;51.146;17.112;2023-05-10T08:20:29;100191.40;;;18.30
68952;BMP180;56000;51.146;17.112;2023-05-10T08:22:58;100200.00;;;18.40
68952;BMP180;56000;51.146;17.112;2023-05-10T08:25:26;100199.00;;;18.50
68952;BMP180;56000;51.146;17.112;2023-05-10T08:27:55;100193.20;;;18.56
68952;BMP180;56000;51.146;17.112;2023-05-10T08:30:24;100197.80;;;18.70
68952;BMP180;56000;51.146;17.112;2023-05-10T08:32:52;100192.60;;;18.80
68952;BMP180;56000;51.146;17.112;2023-05-10T08:35:21;100188.00;;;18.90
68952;BMP180;56000;51.146;17.112;2023-05-10T08:37:51;100194.40;;;19.10
68952;BMP180;56000;51.146;17.112;2023-05-10T08:40:20;100190.20;;;19.20
68952;BMP180;56000;51.146;17.112;2023-05-10T08:42:53;100187.80;;;19.40
68952;BMP180;56000;51.146;17.112;2023-05-10T08:45:24;100181.60;;;19.50
68952;BMP180;56000;51.146;17.112;2023-05-10T08:47:53;100187.60;;;19.78
68952;BMP180;56000;51.146;17.112;2023-05-10T08:50:22;100184.60;;;20.10
68952;BMP180;56000;51.146;17.112;2023-05-10T08:52:50;100190.60;;;20.40
68952;BMP180;56000;51.146;17.112;2023-05-10T08:55:21;100183.60;;;20.70
68952;BMP180;56000;51.146;17.112;2023-05-10T08:57:52;100191.80;;;20.90
68952;BMP180;56000;51.146;17.112;2023-05-10T09:00:22;100180.80;;;21.00
68952;BMP180;56000;51.146;17.112;2023-05-10T09:02:51;100189.20;;;21.10
68952;BMP180;56000;51.146;17.112;2023-05-10T09:05:20;100180.80;;;21.32
68952;BMP180;56000;51.146;17.112;2023-05-10T09:07:49;100186.00;;;21.50
68952;BMP180;56000;51.146;17.112;2023-05-10T09:10:17;100180.20;;;21.50
68952;BMP180;56000;51.146;17.112;2023-05-10T09:12:47;100182.60;;;21.80
68952;BMP180;56000;51.146;17.112;2023-05-10T09:15:16;100182.00;;;22.00
68952;BMP180;56000;51.146;17.112;2023-05-10T09:17:47;100181.20;;;22.30
68952;BMP180;56000;51.146;17.112;2023-05-10T09:20:17;100183.60;;;22.40
68952;BMP180;56000;51.146;17.112;2023-05-10T09:22:46;100174.40;;;22.70
68952;BMP180;56000;51.146;17.112;2023-05-10T09:25:16;100184.40;;;22.88
68952;BMP180;56000;51.146;17.112;2023-05-10T09:27:46;100179.40;;;22.90
68952;BMP180;56000;51.146;17.112;2023-05-10T09:30:17;100180.00;;;23.00
68952;BMP180;56000;51.146;17.112;2023-05-10T09:32:47;100185.00;;;23.30
68952;BMP180;56000;51.146;17.112;2023-05-10T09:35:17;100184.60;;;23.50
68952;BMP180;56000;51.146;17.112;2023-05-10T09:37:47;100186.60;;;23.74
68952;BMP180;56000;51.146;17.112;2023-05-10T09:40:18;100195.60;;;23.90
68952;BMP180;56000;51.146;17.112;2023-05-10T09:42:54;100193.20;;;24.00
68952;BMP180;56000;51.146;17.112;2023-05-10T09:45:25;100192.40;;;24.08
68952;BMP180;56000;51.146;17.112;2023-05-10T09:47:54;100197.40;;;24.10
68952;BMP180;56000;51.146;17.112;2023-05-10T09:50:23;100192.20;;;24.20
68952;BMP180;56000;51.146;17.112;2023-05-10T09:52:53;100196.00;;;24.68
68952;BMP180;56000;51.146;17.112;2023-05-10T09:55:23;100186.80;;;24.60
68952;BMP180;56000;51.146;17.112;2023-05-10T09:58:00;100188.00;;;24.80
68952;BMP180;56000;51.146;17.112;2023-05-10T10:00:34;100189.80;;;24.90
68952;BMP180;56000;51.146;17.112;2023-05-10T10:03:03;100180.80;;;24.90
68952;BMP180;56000;51.146;17.112;2023-05-10T10:05:33;100176.20;;;25.32
68952;BMP180;56000;51.146;17.112;2023-05-10T10:08:05;100179.40;;;25.80
68952;BMP180;56000;51.146;17.112;2023-05-10T10:10:34;100179.60;;;26.20
68952;BMP180;56000;51.146;17.112;2023-05-10T10:13:03;100180.40;;;26.24
68952;BMP180;56000;51.146;17.112;2023-05-10T10:15:33;100168.60;;;26.50
68952;BMP180;56000;51.146;17.112;2023-05-10T10:18:02;100164.60;;;26.66
68952;BMP180;56000;51.146;17.112;2023-05-10T10:20:32;100163.60;;;27.10
68952;BMP180;56000;51.146;17.112;2023-05-10T10:23:00;100163.60;;;27.40
68952;BMP180;56000;51.146;17.112;2023-05-10T10:25:29;100160.20;;;27.76
68952;BMP180;56000;51.146;17.112;2023-05-10T10:28:06;100152.00;;;27.66
68952;BMP180;56000;51.146;17.112;2023-05-10T10:30:40;100151.80;;;28.20
68952;BMP180;56000;51.146;17.112;2023-05-10T10:33:30;100153.20;;;28.50
68952;BMP180;56000;51.146;17.112;2023-05-10T10:36:03;100164.80;;;28.50
68952;BMP180;56000;51.146;17.112;2023-05-10T10:41:30;100159.00;;;28.78
68952;BMP180;56000;51.146;17.112;2023-05-10T10:44:27;100160.40;;;28.70
68952;BMP180;56000;51.146;17.112;2023-05-10T10:47:03;100149.40;;;29.26
68952;BMP180;56000;51.146;17.112;2023-05-10T10:49:37;100151.40;;;29.74
68952;BMP180;56000;51.146;17.112;2023-05-10T10:52:15;100162.80;;;30.04
68952;BMP180;56000;51.146;17.112;2023-05-10T10:54:52;100145.20;;;30.40
68952;BMP180;56000;51.146;17.112;2023-05-10T10:57:21;100157.40;;;31.02
68952;BMP180;56000;51.146;17.112;2023-05-10T11:02:48;100158.20;;;31.08
68952;BMP180;56000;51.146;17.112;2023-05-10T11:05:37;100149.40;;;29.90
68952;BMP180;56000;51.146;17.112;2023-05-10T11:08:15;100155.80;;;30.56
68952;BMP180;56000;51.146;17.112;2023-05-10T11:10:52;100167.20;;;30.46
68952;BMP180;56000;51.146;17.112;2023-05-10T11:13:32;100152.40;;;29.70
68952;BMP180;56000;51.146;17.112;2023-05-10T11:16:11;100154.20;;;30.16
68952;BMP180;56000;51.146;17.112;2023-05-10T11:18:40;100148.80;;;30.30
68952;BMP180;56000;51.146;17.112;2023-05-10T11:21:10;100145.80;;;30.74
68952;BMP180;56000;51.146;17.112;2023-05-10T11:23:52;100150.00;;;31.24
68952;BMP180;56000;51.146;17.112;2023-05-10T11:26:24;100147.80;;;31.76
68952;BMP180;56000;51.146;17.112;2023-05-10T11:28:54;100141.40;;;32.14
68952;BMP180;56000;51.146;17.112;2023-05-10T11:31:28;100152.40;;;31.48
68952;BMP180;56000;51.146;17.112;2023-05-10T11:33:59;100144.20;;;31.68
68952;BMP180;56000;51.146;17.112;2023-05-10T11:36:29;100136.60;;;32.22
68952;BMP180;56000;51.146;17.112;2023-05-10T11:39:01;100143.40;;;32.70
68952;BMP180;56000;51.146;17.112;2023-05-10T11:41:31;100145.00;;;33.20
68952;BMP180;56000;51.146;17.112;2023-05-10T11:43:59;100133.80;;;33.20
68952;BMP180;56000;51.146;17.112;2023-05-10T11:46:28;100132.60;;;33.82
68952;BMP180;56000;51.146;17.112;2023-05-10T11:48:58;100155.00;;;33.22
68952;BMP180;56000;51.146;17.112;2023-05-10T11:51:32;100156.60;;;31.16
68952;BMP180;56000;51.146;17.112;2023-05-10T11:54:01;100148.00;;;30.80
68952;BMP180;56000;51.146;17.112;2023-05-10T11:56:30;100141.80;;;31.44
68952;BMP180;56000;51.146;17.112;2023-05-10T11:59:00;100141.00;;;30.40
68952;BMP180;56000;51.146;17.112;2023-05-10T12:01:30;100134.60;;;31.08
68952;BMP180;56000;51.146;17.112;2023-05-10T12:03:59;100139.00;;;32.24
68952;BMP180;56000;51.146;17.112;2023-05-10T12:06:29;100136.80;;;33.22
68952;BMP180;56000;51.146;17.112;2023-05-10T12:08:59;100138.60;;;34.14
68952;BMP180;56000;51.146;17.112;2023-05-10T12:11:28;100150.80;;;34.22
68952;BMP180;56000;51.146;17.112;2023-05-10T12:13:57;100138.20;;;32.86
68952;BMP180;56000;51.146;17.112;2023-05-10T12:16:28;100148.60;;;33.40
68952;BMP180;56000;51.146;17.112;2023-05-10T12:18:58;100157.40;;;33.00
68952;BMP180;56000;51.146;17.112;2023-05-10T12:21:28;100147.80;;;31.60
68952;BMP180;56000;51.146;17.112;2023-05-10T12:24:01;100148.40;;;32.66
68952;BMP180;56000;51.146;17.112;2023-05-10T12:26:30;100145.40;;;33.28
68952;BMP180;56000;51.146;17.112;2023-05-10T12:29:13;100142.40;;;33.88
68952;BMP180;56000;51.146;17.112;2023-05-10T12:31:54;100144.80;;;34.24
68952;BMP180;56000;51.146;17.112;2023-05-10T12:34:29;100139.00;;;34.20
68952;BMP180;56000;51.146;17.112;2023-05-10T12:36:58;100141.60;;;33.88
68952;BMP180;56000;51.146;17.112;2023-05-10T12:39:37;100153.20;;;34.10
68952;BMP180;56000;51.146;17.112;2023-05-10T12:42:07;100144.60;;;34.62
68952;BMP180;56000;51.146;17.112;2023-05-10T12:44:35;100142.20;;;34.46
68952;BMP180;56000;51.146;17.112;2023-05-10T12:47:04;100147.00;;;34.60
68952;BMP180;56000;51.146;17.112;2023-05-10T12:49:33;100146.60;;;34.26
68952;BMP180;56000;51.146;17.112;2023-05-10T12:52:02;100143.00;;;34.58
68952;BMP180;56000;51.146;17.112;2023-05-10T12:54:31;100150.40;;;34.28
68952;BMP180;56000;51.146;17.112;2023-05-10T12:56:59;100142.40;;;33.22
68952;BMP180;56000;51.146;17.112;2023-05-10T12:59:28;100149.60;;;32.80
68952;BMP180;56000;51.146;17.112;2023-05-10T13:01:57;100147.60;;;33.50
68952;BMP180;56000;51.146;17.112;2023-05-10T13:04:26;100152.60;;;32.72
68952;BMP180;56000;51.146;17.112;2023-05-10T13:06:56;100142.00;;;32.32
68952;BMP180;56000;51.146;17.112;2023-05-10T13:09:26;100132.00;;;33.12
68952;BMP180;56000;51.146;17.112;2023-05-10T13:11:57;100137.60;;;33.86
68952;BMP180;56000;51.146;17.112;2023-05-10T13:14:26;100142.60;;;34.16
68952;BMP180;56000;51.146;17.112;2023-05-10T13:16:55;100140.00;;;34.08
68952;BMP180;56000;51.146;17.112;2023-05-10T13:19:24;100147.00;;;34.20
68952;BMP180;56000;51.146;17.112;2023-05-10T13:21:53;100139.60;;;34.24
68952;BMP180;56000;51.146;17.112;2023-05-10T13:24:22;100136.40;;;34.82
68952;BMP180;56000;51.146;17.112;2023-05-10T13:26:52;100140.40;;;34.92
68952;BMP180;56000;51.146;17.112;2023-05-10T13:29:21;100147.40;;;34.18
68952;BMP180;56000;51.146;17.112;2023-05-10T13:31:53;100149.60;;;31.80
68952;BMP180;56000;51.146;17.112;2023-05-10T13:34:22;100146.20;;;29.80
68952;BMP180;56000;51.146;17.112;2023-05-10T13:36:53;100136.60;;;28.92
68952;BMP180;56000;51.146;17.112;2023-05-10T13:39:24;100144.20;;;27.82
68952;BMP180;56000;51.146;17.112;2023-05-10T13:41:53;100139.40;;;26.50
68952;BMP180;56000;51.146;17.112;2023-05-10T13:44:23;100138.80;;;25.70
68952;BMP180;56000;51.146;17.112;2023-05-10T13:46:52;100136.80;;;25.90
68952;BMP180;56000;51.146;17.112;2023-05-10T13:49:21;100129.80;;;26.56
68952;BMP180;56000;51.146;17.112;2023-05-10T13:51:50;100129.40;;;27.90
68952;BMP180;56000;51.146;17.112;2023-05-10T13:54:20;100121.60;;;27.96
68952;BMP180;56000;51.146;17.112;2023-05-10T13:56:50;100122.80;;;27.80
68952;BMP180;56000;51.146;17.112;2023-05-10T13:59:19;100117.20;;;27.60
68952;BMP180;56000;51.146;17.112;2023-05-10T14:01:48;100124.00;;;26.84
68952;BMP180;56000;51.146;17.112;2023-05-10T14:04:17;100124.00;;;25.88
68952;BMP180;56000;51.146;17.112;2023-05-10T14:06:46;100119.60;;;25.14
68952;BMP180;56000;51.146;17.112;2023-05-10T14:09:16;100110.60;;;24.78
68952;BMP180;56000;51.146;17.112;2023-05-10T14:11:45;100108.40;;;25.60
68952;BMP180;56000;51.146;17.112;2023-05-10T14:14:14;100114.60;;;26.24
68952;BMP180;56000;51.146;17.112;2023-05-10T14:16:44;100100.40;;;28.16